createdAt,value
2017-07-22T00:00:09.854Z,0
2017-07-22T00:01:19.706Z,0
2017-07-22T00:02:28.916Z,0
2017-07-22T00:03:38.770Z,0
2017-07-22T00:04:48.122Z,0
2017-07-22T00:05:57.328Z,0
2017-07-22T00:07:07.181Z,0
2017-07-22T00:08:16.415Z,0
2017-07-22T00:09:26.277Z,0
2017-07-22T00:10:35.689Z,0
2017-07-22T00:11:44.895Z,0
2017-07-22T00:12:53.780Z,0
2017-07-22T00:14:02.986Z,0
2017-07-22T00:15:12.187Z,0
2017-07-22T00:16:21.598Z,0
2017-07-22T00:17:31.134Z,0
2017-07-22T00:18:40.987Z,0
2017-07-22T00:19:50.842Z,0
2017-07-22T00:21:00.709Z,0
2017-07-22T00:22:10.387Z,0
2017-07-22T00:23:19.915Z,0
2017-07-22T00:24:28.800Z,0
2017-07-22T00:25:38.333Z,0
2017-07-22T00:26:47.540Z,0
2017-07-22T00:27:57.324Z,0
2017-07-22T00:29:06.213Z,0
2017-07-22T00:30:16.068Z,0
2017-07-22T00:31:25.602Z,0
2017-07-22T00:32:35.810Z,0
2017-07-22T00:33:45.068Z,0
2017-07-22T00:34:54.914Z,0
2017-07-22T00:36:03.811Z,0
2017-07-22T00:37:13.015Z,0
2017-07-22T00:38:22.218Z,0
2017-07-22T00:39:31.427Z,0
2017-07-22T00:40:40.957Z,0
2017-07-22T00:41:50.813Z,0
2017-07-22T00:43:00.016Z,0
2017-07-22T00:44:09.547Z,0
2017-07-22T00:45:19.054Z,0
2017-07-22T00:46:28.258Z,0
2017-07-22T00:47:37.465Z,0
2017-07-22T00:48:46.999Z,0
2017-07-22T00:49:56.524Z,0
2017-07-22T00:51:05.883Z,0
2017-07-22T00:52:15.437Z,0
2017-07-22T00:53:24.988Z,0
2017-07-22T00:54:34.842Z,0
2017-07-22T00:55:44.047Z,0
2017-07-22T00:56:53.249Z,0
2017-07-22T00:58:03.100Z,0
2017-07-22T00:59:12.310Z,0
2017-07-22T01:00:21.520Z,0
2017-07-22T01:01:31.049Z,0
2017-07-22T01:02:40.577Z,0
2017-07-22T01:03:49.456Z,0
2017-07-22T01:04:58.658Z,0
2017-07-22T01:06:08.194Z,0
2017-07-22T01:07:18.374Z,0
2017-07-22T01:08:27.961Z,0
2017-07-22T01:09:37.167Z,0
2017-07-22T01:10:46.373Z,0
2017-07-22T01:11:56.235Z,0
2017-07-22T01:13:06.095Z,0
2017-07-22T01:14:15.925Z,0
2017-07-22T01:15:25.134Z,0
2017-07-22T01:16:35.314Z,0
2017-07-22T01:17:45.167Z,0
2017-07-22T01:18:54.700Z,0
2017-07-22T01:20:04.062Z,0
2017-07-22T01:21:13.918Z,0
2017-07-22T01:22:23.771Z,0
2017-07-22T01:23:33.622Z,0
2017-07-22T01:24:43.469Z,0
2017-07-22T01:25:53.054Z,0
2017-07-22T01:27:02.909Z,0
2017-07-22T01:28:12.435Z,0
2017-07-22T01:29:21.642Z,0
2017-07-22T01:30:30.530Z,0
2017-07-22T01:31:39.889Z,0
2017-07-22T01:32:49.435Z,0
2017-07-22T01:33:58.642Z,0
2017-07-22T01:35:08.813Z,0
2017-07-22T01:36:18.672Z,0
2017-07-22T01:37:28.198Z,0
2017-07-22T01:38:38.051Z,0
2017-07-22T01:39:46.942Z,0
2017-07-22T01:40:55.822Z,0
2017-07-22T01:42:05.026Z,0
2017-07-22T01:43:14.656Z,0
2017-07-22T01:44:24.507Z,0
2017-07-22T01:45:33.720Z,0
2017-07-22T01:46:42.935Z,0
2017-07-22T01:47:52.784Z,0
2017-07-22T01:49:02.041Z,0
2017-07-22T01:50:11.570Z,0
2017-07-22T01:51:21.113Z,0
2017-07-22T01:52:30.643Z,0
2017-07-22T01:53:40.172Z,0
2017-07-22T01:54:49.377Z,0
2017-07-22T01:55:58.587Z,0
2017-07-22T01:57:08.116Z,0
2017-07-22T01:58:17.327Z,0
2017-07-22T01:59:26.530Z,0
2017-07-22T02:00:36.208Z,0
2017-07-22T02:01:45.738Z,0
2017-07-22T02:02:55.271Z,0
2017-07-22T02:04:04.797Z,0
2017-07-22T02:05:14.328Z,0
2017-07-22T02:06:23.584Z,0
2017-07-22T02:07:32.784Z,0
2017-07-22T02:08:41.671Z,0
2017-07-22T02:09:50.880Z,0
2017-07-22T02:10:59.803Z,0
2017-07-22T02:12:08.845Z,0
2017-07-22T02:13:18.695Z,0
2017-07-22T02:14:28.553Z,0
2017-07-22T02:15:38.085Z,0
2017-07-22T02:16:47.290Z,0
2017-07-22T02:17:56.797Z,0
2017-07-22T02:19:06.324Z,0
2017-07-22T02:20:15.856Z,0
2017-07-22T02:21:24.740Z,0
2017-07-22T02:22:33.946Z,0
2017-07-22T02:23:43.454Z,0
2017-07-22T02:24:52.667Z,0
2017-07-22T02:26:01.548Z,0
2017-07-22T02:27:10.429Z,0
2017-07-22T02:28:19.312Z,0
2017-07-22T02:29:29.044Z,0
2017-07-22T02:30:38.586Z,0
2017-07-22T02:31:48.128Z,0
2017-07-22T02:32:57.336Z,0
2017-07-22T02:34:06.869Z,0
2017-07-22T02:35:16.222Z,0
2017-07-22T02:36:26.400Z,0
2017-07-22T02:37:36.272Z,0
2017-07-22T02:38:45.803Z,0
2017-07-22T02:39:55.333Z,0
2017-07-22T02:41:05.025Z,0
2017-07-22T02:42:14.232Z,0
2017-07-22T02:43:23.438Z,0
2017-07-22T02:44:33.292Z,0
2017-07-22T02:45:42.821Z,0
2017-07-22T02:46:52.837Z,0
2017-07-22T02:48:02.365Z,0
2017-07-22T02:49:11.893Z,0
2017-07-22T02:50:21.095Z,0
2017-07-22T02:51:30.624Z,0
2017-07-22T02:52:40.779Z,4
2017-07-22T02:53:50.636Z,4
2017-07-22T02:54:59.843Z,0
2017-07-22T02:56:09.376Z,0
2017-07-22T02:57:18.594Z,4
2017-07-22T02:58:28.225Z,4
2017-07-22T02:59:37.752Z,4
2017-07-22T03:00:47.606Z,4
2017-07-22T03:01:57.139Z,4
2017-07-22T03:03:06.673Z,8
2017-07-22T03:04:16.301Z,4
2017-07-22T03:05:25.829Z,8
2017-07-22T03:06:35.034Z,8
2017-07-22T03:07:44.566Z,8
2017-07-22T03:08:53.779Z,8
2017-07-22T03:10:03.510Z,12
2017-07-22T03:11:12.725Z,12
2017-07-22T03:12:21.610Z,12
2017-07-22T03:13:31.140Z,16
2017-07-22T03:14:40.341Z,16
2017-07-22T03:15:49.869Z,20
2017-07-22T03:16:59.073Z,20
2017-07-22T03:18:08.618Z,24
2017-07-22T03:19:18.471Z,28
2017-07-22T03:20:28.322Z,28
2017-07-22T03:21:38.272Z,36
2017-07-22T03:22:47.797Z,36
2017-07-22T03:23:57.655Z,40
2017-07-22T03:25:07.769Z,44
2017-07-22T03:26:17.298Z,48
2017-07-22T03:27:26.927Z,52
2017-07-22T03:28:36.133Z,60
2017-07-22T03:29:45.662Z,64
2017-07-22T03:30:55.521Z,68
2017-07-22T03:32:05.701Z,76
2017-07-22T03:33:14.635Z,80
2017-07-22T03:34:24.164Z,84
2017-07-22T03:35:33.060Z,88
2017-07-22T03:36:42.268Z,96
2017-07-22T03:37:51.799Z,104
2017-07-22T03:39:01.327Z,108
2017-07-22T03:40:10.856Z,112
2017-07-22T03:41:20.064Z,120
2017-07-22T03:42:29.917Z,124
2017-07-22T03:43:39.441Z,128
2017-07-22T03:44:49.397Z,136
2017-07-22T03:45:58.603Z,140
2017-07-22T03:47:07.807Z,148
2017-07-22T03:48:16.685Z,156
2017-07-22T03:49:25.569Z,164
2017-07-22T03:50:34.922Z,172
2017-07-22T03:51:44.131Z,180
2017-07-22T03:52:53.984Z,192
2017-07-22T03:54:03.190Z,208
2017-07-22T03:55:13.371Z,220
2017-07-22T03:56:22.997Z,228
2017-07-22T03:57:31.878Z,248
2017-07-22T03:58:40.762Z,264
2017-07-22T03:59:50.611Z,284
2017-07-22T04:00:59.878Z,300
2017-07-22T04:02:09.088Z,320
2017-07-22T04:03:19.263Z,348
2017-07-22T04:04:29.116Z,364
2017-07-22T04:05:38.649Z,364
2017-07-22T04:06:47.527Z,364
2017-07-22T04:07:57.105Z,356
2017-07-22T04:09:06.635Z,344
2017-07-22T04:10:15.844Z,336
2017-07-22T04:11:25.373Z,324
2017-07-22T04:12:34.904Z,308
2017-07-22T04:13:44.264Z,296
2017-07-22T04:14:53.797Z,276
2017-07-22T04:16:03.005Z,272
2017-07-22T04:17:12.534Z,272
2017-07-22T04:18:22.387Z,280
2017-07-22T04:19:31.592Z,296
2017-07-22T04:20:40.802Z,304
2017-07-22T04:21:50.328Z,304
2017-07-22T04:22:59.206Z,312
2017-07-22T04:24:09.060Z,344
2017-07-22T04:25:18.572Z,372
2017-07-22T04:26:28.101Z,380
2017-07-22T04:27:37.955Z,400
2017-07-22T04:28:47.488Z,452
2017-07-22T04:29:56.370Z,508
2017-07-22T04:31:06.051Z,584
2017-07-22T04:32:15.581Z,668
2017-07-22T04:33:25.111Z,720
2017-07-22T04:34:33.994Z,752
2017-07-22T04:35:43.204Z,752
2017-07-22T04:36:52.562Z,720
2017-07-22T04:38:02.090Z,676
2017-07-22T04:39:10.971Z,640
2017-07-22T04:40:20.508Z,596
2017-07-22T04:41:30.039Z,564
2017-07-22T04:42:39.345Z,540
2017-07-22T04:43:48.227Z,504
2017-07-22T04:44:57.429Z,460
2017-07-22T04:46:06.637Z,412
2017-07-22T04:47:15.842Z,364
2017-07-22T04:48:25.372Z,320
2017-07-22T04:49:34.898Z,296
2017-07-22T04:50:44.123Z,288
2017-07-22T04:51:53.655Z,300
2017-07-22T04:53:02.537Z,344
2017-07-22T04:54:11.794Z,360
2017-07-22T04:55:21.323Z,360
2017-07-22T04:56:30.855Z,356
2017-07-22T04:57:40.397Z,356
2017-07-22T04:58:49.926Z,372
2017-07-22T05:00:00.035Z,388
2017-07-22T05:01:09.564Z,404
2017-07-22T05:02:18.770Z,428
2017-07-22T05:03:27.990Z,452
2017-07-22T05:04:37.518Z,440
2017-07-22T05:05:46.553Z,432
2017-07-22T05:06:55.763Z,424
2017-07-22T05:08:05.298Z,396
2017-07-22T05:09:14.502Z,396
2017-07-22T05:10:23.716Z,428
2017-07-22T05:11:33.228Z,436
2017-07-22T05:12:42.439Z,440
2017-07-22T05:13:51.328Z,440
2017-07-22T05:15:00.556Z,440
2017-07-22T05:16:10.123Z,428
2017-07-22T05:17:19.974Z,420
2017-07-22T05:18:29.838Z,416
2017-07-22T05:19:39.380Z,416
2017-07-22T05:20:49.235Z,428
2017-07-22T05:21:59.407Z,440
2017-07-22T05:23:08.769Z,456
2017-07-22T05:24:17.989Z,472
2017-07-22T05:25:26.876Z,492
2017-07-22T05:26:36.411Z,516
2017-07-22T05:27:45.948Z,548
2017-07-22T05:28:55.152Z,572
2017-07-22T05:30:04.042Z,596
2017-07-22T05:31:13.572Z,624
2017-07-22T05:32:22.781Z,660
2017-07-22T05:33:32.311Z,688
2017-07-22T05:34:41.564Z,696
2017-07-22T05:35:51.095Z,688
2017-07-22T05:37:00.301Z,668
2017-07-22T05:38:10.479Z,664
2017-07-22T05:39:20.007Z,672
2017-07-22T05:40:29.687Z,692
2017-07-22T05:41:39.214Z,708
2017-07-22T05:42:48.745Z,728
2017-07-22T05:43:57.961Z,776
2017-07-22T05:45:07.817Z,836
2017-07-22T05:46:17.128Z,904
2017-07-22T05:47:26.345Z,964
2017-07-22T05:48:35.551Z,1000
2017-07-22T05:49:45.406Z,1020
2017-07-22T05:50:54.287Z,1044
2017-07-22T05:52:03.694Z,1088
2017-07-22T05:53:12.900Z,1092
2017-07-22T05:54:23.074Z,1032
2017-07-22T05:55:32.288Z,932
2017-07-22T05:56:41.812Z,840
2017-07-22T05:57:51.493Z,764
2017-07-22T05:59:00.699Z,724
2017-07-22T06:00:10.231Z,692
2017-07-22T06:01:19.762Z,696
2017-07-22T06:02:29.620Z,704
2017-07-22T06:03:38.504Z,684
2017-07-22T06:04:48.690Z,644
2017-07-22T06:05:57.895Z,628
2017-07-22T06:07:06.786Z,624
2017-07-22T06:08:15.995Z,620
2017-07-22T06:09:25.585Z,616
2017-07-22T06:10:34.472Z,628
2017-07-22T06:11:44.327Z,636
2017-07-22T06:12:53.534Z,628
2017-07-22T06:14:02.749Z,628
2017-07-22T06:15:12.906Z,656
2017-07-22T06:16:22.771Z,748
2017-07-22T06:17:32.300Z,776
2017-07-22T06:18:42.474Z,696
2017-07-22T06:19:52.007Z,648
2017-07-22T06:21:01.687Z,652
2017-07-22T06:22:11.220Z,680
2017-07-22T06:23:20.101Z,688
2017-07-22T06:24:29.308Z,708
2017-07-22T06:25:39.163Z,736
2017-07-22T06:26:48.523Z,748
2017-07-22T06:27:58.046Z,796
2017-07-22T06:29:07.252Z,888
2017-07-22T06:30:16.793Z,980
2017-07-22T06:31:26.001Z,1016
2017-07-22T06:32:35.908Z,1028
2017-07-22T06:33:45.115Z,1048
2017-07-22T06:34:54.323Z,1048
2017-07-22T06:36:03.205Z,1052
2017-07-22T06:37:12.740Z,1048
2017-07-22T06:38:22.418Z,1012
2017-07-22T06:39:31.306Z,984
2017-07-22T06:40:40.840Z,1000
2017-07-22T06:41:50.049Z,1048
2017-07-22T06:42:59.254Z,1044
2017-07-22T06:44:08.616Z,1012
2017-07-22T06:45:18.159Z,992
2017-07-22T06:46:28.331Z,988
2017-07-22T06:47:37.220Z,964
2017-07-22T06:48:46.432Z,912
2017-07-22T06:49:55.422Z,940
2017-07-22T06:51:04.955Z,1012
2017-07-22T06:52:14.487Z,1080
2017-07-22T06:53:23.369Z,1116
2017-07-22T06:54:32.900Z,1132
2017-07-22T06:55:42.808Z,1116
2017-07-22T06:56:52.342Z,1060
2017-07-22T06:58:01.224Z,956
2017-07-22T06:59:10.753Z,828
2017-07-22T07:00:19.968Z,732
2017-07-22T07:01:30.081Z,660
2017-07-22T07:02:39.612Z,620
2017-07-22T07:03:49.159Z,636
2017-07-22T07:04:58.368Z,628
2017-07-22T07:06:07.897Z,604
2017-07-22T07:07:17.428Z,600
2017-07-22T07:08:26.961Z,588
2017-07-22T07:09:36.488Z,604
2017-07-22T07:10:45.701Z,636
2017-07-22T07:11:54.589Z,668
2017-07-22T07:13:03.796Z,628
2017-07-22T07:14:13.334Z,584
2017-07-22T07:15:23.187Z,552
2017-07-22T07:16:33.091Z,548
2017-07-22T07:17:42.955Z,564
2017-07-22T07:18:52.643Z,564
2017-07-22T07:20:01.854Z,560
2017-07-22T07:21:11.408Z,556
2017-07-22T07:22:21.259Z,564
2017-07-22T07:23:30.145Z,552
2017-07-22T07:24:40.049Z,468
2017-07-22T07:25:49.264Z,436
2017-07-22T07:26:58.794Z,400
2017-07-22T07:28:08.431Z,444
2017-07-22T07:29:17.657Z,488
2017-07-22T07:30:27.303Z,516
2017-07-22T07:31:36.509Z,528
2017-07-22T07:32:45.740Z,548
2017-07-22T07:33:54.674Z,520
2017-07-22T07:35:04.220Z,516
2017-07-22T07:36:13.548Z,652
2017-07-22T07:37:22.430Z,640
2017-07-22T07:38:31.645Z,748
2017-07-22T07:39:40.847Z,836
2017-07-22T07:40:49.735Z,908
2017-07-22T07:41:59.313Z,1000
2017-07-22T07:43:08.847Z,1048
2017-07-22T07:44:18.399Z,1056
2017-07-22T07:45:27.279Z,940
2017-07-22T07:46:36.806Z,972
2017-07-22T07:47:46.162Z,1188
2017-07-22T07:48:55.369Z,1284
2017-07-22T07:50:04.902Z,1288
2017-07-22T07:51:14.111Z,1272
2017-07-22T07:52:23.018Z,1276
2017-07-22T07:53:32.561Z,1256
2017-07-22T07:54:41.794Z,1324
2017-07-22T07:55:51.650Z,1468
2017-07-22T07:57:01.234Z,1488
2017-07-22T07:58:10.762Z,1648
2017-07-22T07:59:19.970Z,1728
2017-07-22T08:00:29.178Z,1840
2017-07-22T08:01:38.712Z,1940
2017-07-22T08:02:48.243Z,2024
2017-07-22T08:03:58.306Z,2056
2017-07-22T08:05:07.521Z,2032
2017-07-22T08:06:17.374Z,1964
2017-07-22T08:07:26.579Z,1920
2017-07-22T08:08:36.106Z,1932
2017-07-22T08:09:45.320Z,2024
2017-07-22T08:10:55.500Z,2172
2017-07-22T08:12:04.705Z,2348
2017-07-22T08:13:14.238Z,2512
2017-07-22T08:14:23.768Z,2672
2017-07-22T08:15:32.982Z,2764
2017-07-22T08:16:41.871Z,2732
2017-07-22T08:17:51.724Z,2684
2017-07-22T08:19:01.254Z,2700
2017-07-22T08:20:10.466Z,2776
2017-07-22T08:21:20.001Z,2880
2017-07-22T08:22:29.219Z,2980
2017-07-22T08:23:38.104Z,3116
2017-07-22T08:24:47.965Z,3156
2017-07-22T08:25:57.174Z,3092
2017-07-22T08:27:06.053Z,2764
2017-07-22T08:28:15.581Z,2388
2017-07-22T08:29:25.448Z,2184
2017-07-22T08:30:34.754Z,2172
2017-07-22T08:31:43.646Z,2012
2017-07-22T08:32:52.850Z,2100
2017-07-22T08:34:01.735Z,2420
2017-07-22T08:35:11.328Z,2696
2017-07-22T08:36:20.588Z,2788
2017-07-22T08:37:29.795Z,2788
2017-07-22T08:38:38.706Z,2524
2017-07-22T08:39:47.910Z,2660
2017-07-22T08:40:56.795Z,2820
2017-07-22T08:42:06.580Z,2872
2017-07-22T08:43:15.784Z,2796
2017-07-22T08:44:25.318Z,2684
2017-07-22T08:45:34.333Z,2576
2017-07-22T08:46:43.214Z,2472
2017-07-22T08:47:52.195Z,2352
2017-07-22T08:49:01.089Z,2072
2017-07-22T08:50:10.300Z,1852
2017-07-22T08:51:19.831Z,1792
2017-07-22T08:52:29.366Z,1856
2017-07-22T08:53:38.677Z,1584
2017-07-22T08:54:47.883Z,1536
2017-07-22T08:55:57.098Z,1408
2017-07-22T08:57:06.303Z,1648
2017-07-22T08:58:15.833Z,1860
2017-07-22T08:59:25.511Z,1732
2017-07-22T09:00:35.042Z,1992
2017-07-22T09:01:43.930Z,2088
2017-07-22T09:02:52.818Z,2068
2017-07-22T09:04:01.699Z,2136
2017-07-22T09:05:11.205Z,2108
2017-07-22T09:06:20.419Z,1944
2017-07-22T09:07:29.963Z,2068
2017-07-22T09:08:38.861Z,2392
2017-07-22T09:09:47.760Z,2800
2017-07-22T09:10:57.442Z,3304
2017-07-22T09:12:07.623Z,4208
2017-07-22T09:13:17.492Z,4928
2017-07-22T09:14:26.371Z,5520
2017-07-22T09:15:35.256Z,6240
2017-07-22T09:16:44.467Z,6144
2017-07-22T09:17:53.353Z,6336
2017-07-22T09:19:02.562Z,6048
2017-07-22T09:20:12.418Z,6212
2017-07-22T09:21:21.627Z,6020
2017-07-22T09:22:32.101Z,6560
2017-07-22T09:23:41.310Z,6432
2017-07-22T09:24:50.520Z,6032
2017-07-22T09:25:59.731Z,5428
2017-07-22T09:27:09.264Z,4936
2017-07-22T09:28:18.626Z,4572
2017-07-22T09:29:28.159Z,4588
2017-07-22T09:30:37.051Z,5312
2017-07-22T09:31:46.589Z,6044
2017-07-22T09:32:56.126Z,6296
2017-07-22T09:34:06.560Z,6744
2017-07-22T09:35:16.108Z,7100
2017-07-22T09:36:25.024Z,7376
2017-07-22T09:37:34.248Z,7552
2017-07-22T09:38:44.123Z,7388
2017-07-22T09:39:53.582Z,7444
2017-07-22T09:41:03.120Z,7616
2017-07-22T09:42:12.350Z,7992
2017-07-22T09:43:21.561Z,8876
2017-07-22T09:44:31.147Z,9488
2017-07-22T09:45:40.509Z,9756
2017-07-22T09:46:50.066Z,9948
2017-07-22T09:47:59.306Z,9988
2017-07-22T09:49:09.159Z,9260
2017-07-22T09:50:18.689Z,9128
2017-07-22T09:51:28.059Z,11200
2017-07-22T09:52:37.281Z,7824
2017-07-22T09:53:46.488Z,8112
2017-07-22T09:54:55.702Z,8044
2017-07-22T09:56:04.919Z,5628
2017-07-22T09:57:14.432Z,4404
2017-07-22T09:58:23.319Z,3776
2017-07-22T09:59:32.528Z,3828
2017-07-22T10:00:42.402Z,3992
2017-07-22T10:01:51.941Z,3972
2017-07-22T10:03:01.528Z,4616
2017-07-22T10:04:10.734Z,5396
2017-07-22T10:05:20.274Z,5396
2017-07-22T10:06:29.179Z,5784
2017-07-22T10:07:38.431Z,6088
2017-07-22T10:08:48.577Z,7148
2017-07-22T10:09:57.792Z,7280
2017-07-22T10:11:08.029Z,7720
2017-07-22T10:12:17.338Z,6876
2017-07-22T10:13:26.580Z,8896
2017-07-22T10:14:36.313Z,5520
2017-07-22T10:15:46.182Z,5448
2017-07-22T10:16:56.043Z,5076
2017-07-22T10:18:05.577Z,7428
2017-07-22T10:19:14.469Z,5856
2017-07-22T10:20:23.885Z,4664
2017-07-22T10:21:32.801Z,5616
2017-07-22T10:22:41.706Z,9096
2017-07-22T10:23:51.567Z,7712
2017-07-22T10:25:00.464Z,10244
2017-07-22T10:26:09.729Z,8648
2017-07-22T10:27:18.945Z,7652
2017-07-22T10:28:28.180Z,8436
2017-07-22T10:29:37.071Z,8300
2017-07-22T10:30:46.606Z,8148
2017-07-22T10:31:56.013Z,7048
2017-07-22T10:33:05.791Z,7472
2017-07-22T10:34:15.161Z,9984
2017-07-22T10:35:25.049Z,11708
2017-07-22T10:36:33.941Z,11920
2017-07-22T10:37:43.627Z,9820
2017-07-22T10:38:53.105Z,9248
2017-07-22T10:40:02.656Z,9760
2017-07-22T10:41:12.206Z,9248
2017-07-22T10:42:22.004Z,8552
2017-07-22T10:43:31.244Z,8088
2017-07-22T10:44:40.784Z,7940
2017-07-22T10:45:50.002Z,8060
2017-07-22T10:46:59.212Z,8984
2017-07-22T10:48:09.389Z,11036
2017-07-22T10:49:19.073Z,8496
2017-07-22T10:50:28.629Z,10436
2017-07-22T10:51:37.843Z,10900
2017-07-22T10:52:47.379Z,11716
2017-07-22T10:53:56.924Z,9784
2017-07-22T10:55:06.281Z,8888
2017-07-22T10:56:15.181Z,7764
2017-07-22T10:57:25.037Z,8684
2017-07-22T10:58:34.246Z,9812
2017-07-22T10:59:43.470Z,6760
2017-07-22T11:00:53.203Z,9356
2017-07-22T11:02:02.738Z,9564
2017-07-22T11:03:12.920Z,9224
2017-07-22T11:04:22.130Z,11484
2017-07-22T11:05:31.667Z,12064
2017-07-22T11:06:41.502Z,12948
2017-07-22T11:07:50.713Z,13284
2017-07-22T11:08:59.922Z,10640
2017-07-22T11:10:09.135Z,10928
2017-07-22T11:11:18.347Z,11416
2017-07-22T11:12:27.283Z,10612
2017-07-22T11:13:36.816Z,9644
2017-07-22T11:14:46.684Z,14192
2017-07-22T11:15:56.239Z,12200
2017-07-22T11:17:05.454Z,12780
2017-07-22T11:18:15.192Z,12352
2017-07-22T11:19:24.723Z,13116
2017-07-22T11:20:34.263Z,10160
2017-07-22T11:21:43.812Z,8052
2017-07-22T11:22:53.028Z,10844
2017-07-22T11:24:03.317Z,13532
2017-07-22T11:25:12.852Z,13744
2017-07-22T11:26:22.062Z,12988
2017-07-22T11:27:31.934Z,12164
2017-07-22T11:28:41.471Z,11788
2017-07-22T11:29:51.339Z,11112
2017-07-22T11:31:00.878Z,11808
2017-07-22T11:32:10.096Z,12068
2017-07-22T11:33:19.969Z,12368
2017-07-22T11:34:29.506Z,12232
2017-07-22T11:35:38.818Z,13432
2017-07-22T11:36:48.033Z,12316
2017-07-22T11:37:56.932Z,10336
2017-07-22T11:39:06.797Z,8636
2017-07-22T11:40:16.050Z,7508
2017-07-22T11:41:25.756Z,7792
2017-07-22T11:42:34.649Z,7184
2017-07-22T11:43:43.905Z,7536
2017-07-22T11:44:53.159Z,8128
2017-07-22T11:46:02.723Z,8420
2017-07-22T11:47:12.321Z,8684
2017-07-22T11:48:22.508Z,9688
2017-07-22T11:49:32.055Z,10928
2017-07-22T11:50:41.268Z,11476
2017-07-22T11:51:50.162Z,11136
2017-07-22T11:52:59.393Z,11908
2017-07-22T11:54:08.933Z,13176
2017-07-22T11:55:18.805Z,12480
2017-07-22T11:56:27.705Z,13376
2017-07-22T11:57:36.902Z,13252
2017-07-22T11:58:46.435Z,11268
2017-07-22T11:59:55.644Z,14784
2017-07-22T12:01:04.532Z,23392
2017-07-22T12:02:14.203Z,21664
2017-07-22T12:03:23.762Z,90368
2017-07-22T12:04:32.957Z,16992
2017-07-22T12:05:42.817Z,31776
2017-07-22T12:06:52.034Z,74240
2017-07-22T12:08:01.900Z,65024
2017-07-22T12:09:11.118Z,49280
2017-07-22T12:10:20.214Z,73344
2017-07-22T12:11:29.753Z,74528
2017-07-22T12:12:39.292Z,79296
2017-07-22T12:13:48.186Z,76672
2017-07-22T12:14:57.405Z,91968
2017-07-22T12:16:07.043Z,71040
2017-07-22T12:17:15.939Z,61664
2017-07-22T12:18:25.485Z,21728
2017-07-22T12:19:34.739Z,29280
2017-07-22T12:20:44.311Z,37024
2017-07-22T12:21:53.828Z,46720
2017-07-22T12:23:03.066Z,38592
2017-07-22T12:24:12.292Z,34272
2017-07-22T12:25:21.509Z,38720
2017-07-22T12:26:31.382Z,26464
2017-07-22T12:27:41.178Z,54560
2017-07-22T12:28:51.050Z,22368
2017-07-22T12:30:00.916Z,74880
2017-07-22T12:31:10.155Z,12872
2017-07-22T12:32:19.373Z,87904
2017-07-22T12:33:29.047Z,89184
2017-07-22T12:34:38.594Z,93504
2017-07-22T12:35:48.154Z,54976
2017-07-22T12:36:57.701Z,74816
2017-07-22T12:38:07.247Z,70304
2017-07-22T12:39:16.621Z,81216
2017-07-22T12:40:25.840Z,52352
2017-07-22T12:41:35.065Z,79552
2017-07-22T12:42:45.058Z,73984
2017-07-22T12:43:54.290Z,70560
2017-07-22T12:45:04.084Z,40896
2017-07-22T12:46:13.633Z,76736
2017-07-22T12:47:23.182Z,82336
2017-07-22T12:48:32.401Z,85888
2017-07-22T12:49:41.635Z,79840
2017-07-22T12:50:51.283Z,73824
2017-07-22T12:52:00.509Z,90784
2017-07-22T12:53:10.057Z,93856
2017-07-22T12:54:19.613Z,93280
2017-07-22T12:55:29.165Z,68256
2017-07-22T12:56:38.707Z,83264
2017-07-22T12:57:48.411Z,75168
2017-07-22T12:58:58.798Z,52864
2017-07-22T13:00:08.381Z,85024
2017-07-22T13:01:18.324Z,93536
2017-07-22T13:02:28.462Z,85056
2017-07-22T13:03:38.076Z,79488
2017-07-22T13:04:47.147Z,76128
2017-07-22T13:05:56.628Z,25664
2017-07-22T13:07:06.523Z,91616
2017-07-22T13:08:15.863Z,86240
2017-07-22T13:09:25.731Z,92384
2017-07-22T13:10:34.965Z,79200
2017-07-22T13:11:44.515Z,76960
2017-07-22T13:12:54.069Z,14580
2017-07-22T13:14:03.069Z,15284
2017-07-22T13:15:13.318Z,71584
2017-07-22T13:16:22.545Z,79008
2017-07-22T13:17:31.791Z,71424
2017-07-22T13:18:41.317Z,77344
2017-07-22T13:19:50.695Z,63456
2017-07-22T13:21:00.061Z,81504
2017-07-22T13:22:10.430Z,80896
2017-07-22T13:23:20.175Z,79136
2017-07-22T13:24:30.710Z,79360
2017-07-22T13:25:40.345Z,79552
2017-07-22T13:26:49.660Z,78528
2017-07-22T13:27:59.462Z,79168
2017-07-22T13:29:09.703Z,81664
2017-07-22T13:30:19.632Z,82624
2017-07-22T13:31:30.372Z,80576
2017-07-22T13:32:39.738Z,77728
2017-07-22T13:33:49.396Z,77504
2017-07-22T13:34:58.416Z,78176
2017-07-22T13:36:08.311Z,77824
2017-07-22T13:37:18.221Z,76160
2017-07-22T13:38:27.608Z,77248
2017-07-22T13:39:36.588Z,78144
2017-07-22T13:40:46.123Z,78528
2017-07-22T13:41:55.966Z,79360
2017-07-22T13:43:05.198Z,79136
2017-07-22T13:44:15.654Z,63040
2017-07-22T13:45:25.010Z,12940
2017-07-22T13:46:34.107Z,17152
2017-07-22T13:47:43.530Z,79168
2017-07-22T13:48:52.627Z,14172
2017-07-22T13:50:02.670Z,12804
2017-07-22T13:51:11.958Z,77152
2017-07-22T13:52:20.944Z,68352
2017-07-22T13:53:30.255Z,76256
2017-07-22T13:54:40.503Z,68736
2017-07-22T13:55:50.182Z,13776
2017-07-22T13:56:59.150Z,10388
2017-07-22T13:58:09.025Z,12036
2017-07-22T13:59:18.895Z,17248
2017-07-22T14:00:28.694Z,62656
2017-07-22T14:01:38.565Z,77120
2017-07-22T14:02:48.759Z,79168
2017-07-22T14:03:57.662Z,81952
2017-07-22T14:05:06.895Z,20128
2017-07-22T14:06:16.419Z,15140
2017-07-22T14:07:25.978Z,18496
2017-07-22T14:08:35.532Z,51648
2017-07-22T14:09:45.108Z,76928
2017-07-22T14:10:55.302Z,75168
2017-07-22T14:12:04.205Z,72928
2017-07-22T14:13:13.761Z,72032
2017-07-22T14:14:23.634Z,74656
2017-07-22T14:15:33.193Z,76640
2017-07-22T14:16:42.416Z,12620
2017-07-22T14:17:51.964Z,40384
2017-07-22T14:19:01.196Z,75232
2017-07-22T14:20:11.725Z,76128
2017-07-22T14:21:20.951Z,72960
2017-07-22T14:22:30.508Z,73856
2017-07-22T14:23:40.058Z,73792
2017-07-22T14:24:49.608Z,74112
2017-07-22T14:25:59.483Z,75328
2017-07-22T14:27:09.364Z,75712
2017-07-22T14:28:18.916Z,62912
2017-07-22T14:29:28.145Z,27776
2017-07-22T14:30:38.016Z,73472
2017-07-22T14:31:47.568Z,63936
2017-07-22T14:32:57.448Z,64768
2017-07-22T14:34:07.002Z,68736
2017-07-22T14:35:16.262Z,69376
2017-07-22T14:36:25.814Z,71040
2017-07-22T14:37:35.414Z,25888
2017-07-22T14:38:44.647Z,74688
2017-07-22T14:39:53.872Z,14216
2017-07-22T14:41:03.432Z,64448
2017-07-22T14:42:13.344Z,50848
2017-07-22T14:43:22.703Z,11152
2017-07-22T14:44:31.926Z,8052
2017-07-22T14:45:41.152Z,6596
2017-07-22T14:46:51.046Z,9504
2017-07-22T14:48:00.329Z,12792
2017-07-22T14:49:09.599Z,34816
2017-07-22T14:50:18.828Z,63136
2017-07-22T14:51:28.378Z,11556
2017-07-22T14:52:37.930Z,7480
2017-07-22T14:53:48.454Z,9280
2017-07-22T14:54:57.678Z,8540
2017-07-22T14:56:07.224Z,12344
2017-07-22T14:57:17.093Z,8412
2017-07-22T14:58:25.991Z,8620
2017-07-22T14:59:35.213Z,17056
2017-07-22T15:00:45.186Z,14736
2017-07-22T15:01:55.379Z,68416
2017-07-22T15:03:05.247Z,76160
2017-07-22T15:04:14.150Z,74336
2017-07-22T15:05:23.049Z,74560
2017-07-22T15:06:32.637Z,72160
2017-07-22T15:07:41.861Z,68416
2017-07-22T15:08:51.082Z,61120
2017-07-22T15:10:00.313Z,53056
2017-07-22T15:11:09.547Z,52032
2017-07-22T15:12:18.779Z,56704
2017-07-22T15:13:28.335Z,58080
2017-07-22T15:14:38.206Z,58464
2017-07-22T15:15:47.434Z,57824
2017-07-22T15:16:56.978Z,52896
2017-07-22T15:18:06.585Z,43872
2017-07-22T15:19:16.462Z,35936
2017-07-22T15:20:26.335Z,32000
2017-07-22T15:21:36.539Z,30816
2017-07-22T15:22:46.087Z,30016
2017-07-22T15:23:55.466Z,27584
2017-07-22T15:25:05.018Z,23168
2017-07-22T15:26:14.248Z,21920
2017-07-22T15:27:23.485Z,24608
2017-07-22T15:28:32.727Z,25760
2017-07-22T15:29:42.257Z,21824
2017-07-22T15:30:51.483Z,17360
2017-07-22T15:32:01.359Z,13256
2017-07-22T15:33:10.624Z,11168
2017-07-22T15:34:19.854Z,10364
2017-07-22T15:35:29.503Z,9916
2017-07-22T15:36:38.733Z,9788
2017-07-22T15:37:48.283Z,9836
2017-07-22T15:38:57.523Z,9864
2017-07-22T15:40:07.100Z,9576
2017-07-22T15:41:16.820Z,9424
2017-07-22T15:42:25.744Z,9360
2017-07-22T15:43:34.973Z,9340